TKJ3JY LTFH-LTFJ
Flight info
| Callsign | TKJ3JY |
|---|---|
| Flight time | 1h 6m |
| Altitude | 32000 |
| Route | HAVZA UW71 ILHAN UT79 NAMAN |
| Aircraft | B738/M-SDE2E3FGHIRWXY/LB1 |
Departure
| Time | 2026-05-05 19:14 |
|---|---|
| Airport | Samsun-Çarşamba Airport (LTFH) |
Arrival
| Time | 2026-05-05 20:20 |
|---|---|
| Airport | Istanbul Sabiha Gökçen International Airport (LTFJ) |
| Time | Latitude | Longitude | Altitude | Speed | Heading |
|---|---|---|---|---|---|
| 2026-05-05 18:38 | 41.25811 | 36.55595 | 28 ft | 0 kts | 224° |
| 2026-05-05 19:03 | 41.25819 | 36.55605 | 28 ft | 2 kts | 224° |
| 2026-05-05 19:03 | 41.25830 | 36.55619 | 28 ft | 2 kts | 239° |
| 2026-05-05 19:03 | 41.25836 | 36.55638 | 28 ft | 2 kts | 254° |
| 2026-05-05 19:04 | 41.25838 | 36.55658 | 28 ft | 2 kts | 271° |
| 2026-05-05 19:04 | 41.25836 | 36.55677 | 28 ft | 2 kts | 288° |
| 2026-05-05 19:04 | 41.25830 | 36.55695 | 28 ft | 2 kts | 304° |
| 2026-05-05 19:04 | 41.25825 | 36.55704 | 28 ft | 1 kts | 315° |
| 2026-05-05 19:05 | 41.25822 | 36.55708 | 28 ft | 0 kts | 313° |
| 2026-05-05 19:07 | 41.25823 | 36.55706 | 27 ft | 1 kts | 313° |
| 2026-05-05 19:07 | 41.25853 | 36.55675 | 28 ft | 6 kts | 349° |
| 2026-05-05 19:08 | 41.25903 | 36.55704 | 28 ft | 10 kts | 40° |
| 2026-05-05 19:08 | 41.25955 | 36.55769 | 27 ft | 10 kts | 43° |
| 2026-05-05 19:08 | 41.26015 | 36.55843 | 26 ft | 15 kts | 46° |
| 2026-05-05 19:08 | 41.25989 | 36.55954 | 27 ft | 14 kts | 135° |
| 2026-05-05 19:09 | 41.25902 | 36.56074 | 28 ft | 20 kts | 134° |
| 2026-05-05 19:09 | 41.25789 | 36.56233 | 29 ft | 26 kts | 134° |
| 2026-05-05 19:09 | 41.25647 | 36.56442 | 29 ft | 33 kts | 133° |
| 2026-05-05 19:09 | 41.25482 | 36.56662 | 27 ft | 32 kts | 136° |
| 2026-05-05 19:10 | 41.25325 | 36.56879 | 26 ft | 31 kts | 134° |
| 2026-05-05 19:10 | 41.25178 | 36.57085 | 26 ft | 29 kts | 134° |
| 2026-05-05 19:10 | 41.25040 | 36.57277 | 28 ft | 27 kts | 134° |
| 2026-05-05 19:10 | 41.24914 | 36.57452 | 30 ft | 25 kts | 134° |
| 2026-05-05 19:11 | 41.24795 | 36.57619 | 29 ft | 24 kts | 133° |
| 2026-05-05 19:11 | 41.24683 | 36.57777 | 28 ft | 23 kts | 134° |
| 2026-05-05 19:11 | 41.24629 | 36.57899 | 27 ft | 10 kts | 98° |
| 2026-05-05 19:11 | 41.24602 | 36.57989 | 28 ft | 11 kts | 133° |
| 2026-05-05 19:12 | 41.24548 | 36.58016 | 29 ft | 7 kts | 221° |
| 2026-05-05 19:12 | 41.24558 | 36.57950 | 28 ft | 8 kts | 307° |
| 2026-05-05 19:12 | 41.24585 | 36.57911 | 28 ft | 0 kts | 313° |
| 2026-05-05 19:13 | 41.24587 | 36.57908 | 28 ft | 3 kts | 313° |
| 2026-05-05 19:13 | 41.24714 | 36.57730 | 28 ft | 60 kts | 314° |
| 2026-05-05 19:13 | 41.25153 | 36.57117 | 27 ft | 122 kts | 314° |
| 2026-05-05 19:13 | 41.25874 | 36.56111 | 31 ft | 172 kts | 313° |
| 2026-05-05 19:14 | 41.26691 | 36.54939 | 641 ft | 170 kts | 312° |
| 2026-05-05 19:14 | 41.27477 | 36.53779 | 1325 ft | 172 kts | 314° |
| 2026-05-05 19:14 | 41.28308 | 36.52626 | 1895 ft | 173 kts | 316° |
| 2026-05-05 19:14 | 41.29147 | 36.51522 | 2453 ft | 171 kts | 317° |
| 2026-05-05 19:15 | 41.30009 | 36.50394 | 2907 ft | 175 kts | 317° |
| 2026-05-05 19:15 | 41.30874 | 36.49254 | 3332 ft | 180 kts | 317° |
| 2026-05-05 19:15 | 41.31791 | 36.48051 | 3724 ft | 187 kts | 317° |
| 2026-05-05 19:15 | 41.32687 | 36.46759 | 4025 ft | 201 kts | 301° |
| 2026-05-05 19:16 | 41.33013 | 36.44868 | 4255 ft | 222 kts | 267° |
| 2026-05-05 19:16 | 41.32603 | 36.42848 | 4694 ft | 233 kts | 243° |
| 2026-05-05 19:16 | 41.31546 | 36.41243 | 5307 ft | 234 kts | 213° |
| 2026-05-05 19:16 | 41.30206 | 36.40021 | 5880 ft | 236 kts | 226° |
| 2026-05-05 19:17 | 41.29361 | 36.38142 | 6406 ft | 240 kts | 253° |
| 2026-05-05 19:17 | 41.28854 | 36.35973 | 6718 ft | 256 kts | 252° |
| 2026-05-05 19:17 | 41.28133 | 36.33748 | 7057 ft | 271 kts | 243° |
| 2026-05-05 19:17 | 41.27191 | 36.31506 | 7470 ft | 283 kts | 239° |
| 2026-05-05 19:18 | 41.26151 | 36.29255 | 8043 ft | 289 kts | 238° |
| 2026-05-05 19:18 | 41.25072 | 36.26965 | 8692 ft | 293 kts | 238° |
| 2026-05-05 19:18 | 41.23987 | 36.24652 | 9345 ft | 296 kts | 239° |
| 2026-05-05 19:18 | 41.22905 | 36.22324 | 10032 ft | 300 kts | 239° |
| 2026-05-05 19:19 | 41.21804 | 36.19943 | 10526 ft | 311 kts | 239° |
| 2026-05-05 19:19 | 41.20650 | 36.17438 | 10912 ft | 325 kts | 239° |
| 2026-05-05 19:19 | 41.19447 | 36.14821 | 11253 ft | 341 kts | 239° |
| 2026-05-05 19:19 | 41.18195 | 36.12103 | 11779 ft | 350 kts | 239° |
| 2026-05-05 19:20 | 41.16903 | 36.09303 | 12469 ft | 355 kts | 239° |
| 2026-05-05 19:20 | 41.15610 | 36.06505 | 13243 ft | 357 kts | 239° |
| 2026-05-05 19:20 | 41.14312 | 36.03695 | 14001 ft | 359 kts | 239° |
| 2026-05-05 19:20 | 41.13005 | 36.00868 | 14760 ft | 362 kts | 238° |
| 2026-05-05 19:21 | 41.11684 | 35.98014 | 15506 ft | 365 kts | 238° |
| 2026-05-05 19:21 | 41.10463 | 35.95090 | 16232 ft | 368 kts | 245° |
| 2026-05-05 19:21 | 41.09597 | 35.91866 | 16918 ft | 372 kts | 257° |
| 2026-05-05 19:21 | 41.09248 | 35.88504 | 17596 ft | 375 kts | 266° |
| 2026-05-05 19:22 | 41.09135 | 35.85046 | 18248 ft | 379 kts | 269° |
| 2026-05-05 19:22 | 41.09133 | 35.81526 | 18923 ft | 382 kts | 271° |
| 2026-05-05 19:22 | 41.09181 | 35.77994 | 19577 ft | 385 kts | 271° |
| 2026-05-05 19:22 | 41.09227 | 35.74462 | 20198 ft | 389 kts | 270° |
| 2026-05-05 19:23 | 41.09260 | 35.70867 | 20812 ft | 392 kts | 270° |
| 2026-05-05 19:23 | 41.09280 | 35.67253 | 21402 ft | 396 kts | 270° |
| 2026-05-05 19:23 | 41.09290 | 35.63603 | 21977 ft | 400 kts | 270° |
| 2026-05-05 19:23 | 41.09291 | 35.59890 | 22553 ft | 403 kts | 270° |
| 2026-05-05 19:24 | 41.09288 | 35.56151 | 23104 ft | 407 kts | 270° |
| 2026-05-05 19:24 | 41.09283 | 35.52385 | 23641 ft | 410 kts | 270° |
| 2026-05-05 19:24 | 41.09275 | 35.48614 | 24123 ft | 415 kts | 270° |
| 2026-05-05 19:24 | 41.09267 | 35.44801 | 24665 ft | 417 kts | 270° |
| 2026-05-05 19:25 | 41.09258 | 35.40923 | 25172 ft | 420 kts | 271° |
| 2026-05-05 19:25 | 41.09248 | 35.37093 | 25655 ft | 422 kts | 271° |
| 2026-05-05 19:25 | 41.09237 | 35.33159 | 26091 ft | 426 kts | 271° |
| 2026-05-05 19:25 | 41.09224 | 35.29235 | 26618 ft | 426 kts | 271° |
| 2026-05-05 19:26 | 41.09211 | 35.25327 | 27068 ft | 428 kts | 271° |
| 2026-05-05 19:26 | 41.09195 | 35.21389 | 27718 ft | 425 kts | 271° |
| 2026-05-05 19:26 | 41.09179 | 35.17513 | 28337 ft | 422 kts | 271° |
| 2026-05-05 19:26 | 41.09161 | 35.13638 | 28873 ft | 421 kts | 271° |
| 2026-05-05 19:27 | 41.09143 | 35.09732 | 29390 ft | 419 kts | 272° |
| 2026-05-05 19:27 | 41.09124 | 35.05896 | 29854 ft | 418 kts | 272° |
| 2026-05-05 19:27 | 41.09103 | 35.02079 | 30300 ft | 416 kts | 272° |
| 2026-05-05 19:27 | 41.09081 | 34.98262 | 30721 ft | 414 kts | 272° |
| 2026-05-05 19:28 | 41.09058 | 34.94432 | 31060 ft | 414 kts | 273° |
| 2026-05-05 19:28 | 41.09035 | 34.90552 | 31266 ft | 417 kts | 272° |
| 2026-05-05 19:28 | 41.09010 | 34.86696 | 31469 ft | 416 kts | 272° |
| 2026-05-05 19:28 | 41.08983 | 34.82847 | 31676 ft | 414 kts | 272° |
| 2026-05-05 19:29 | 41.08954 | 34.79019 | 31882 ft | 414 kts | 273° |
| 2026-05-05 19:29 | 41.08925 | 34.75196 | 32021 ft | 416 kts | 273° |
| 2026-05-05 19:29 | 41.08862 | 34.67584 | 32029 ft | 412 kts | 273° |
| 2026-05-05 19:30 | 41.08796 | 34.59961 | 32024 ft | 412 kts | 273° |
| 2026-05-05 19:30 | 41.08728 | 34.52316 | 32015 ft | 412 kts | 274° |
| 2026-05-05 19:31 | 41.08652 | 34.44758 | 32003 ft | 410 kts | 273° |
| 2026-05-05 19:31 | 41.08569 | 34.37157 | 32020 ft | 412 kts | 274° |
| 2026-05-05 19:32 | 41.08480 | 34.29559 | 32020 ft | 412 kts | 273° |
| 2026-05-05 19:32 | 41.08387 | 34.21932 | 32019 ft | 410 kts | 274° |
| 2026-05-05 19:33 | 41.08290 | 34.14384 | 32028 ft | 410 kts | 274° |
| 2026-05-05 19:33 | 41.08189 | 34.06860 | 32028 ft | 411 kts | 274° |
| 2026-05-05 19:34 | 41.08084 | 33.99255 | 32042 ft | 410 kts | 274° |
| 2026-05-05 19:35 | 41.07916 | 33.87968 | 32033 ft | 408 kts | 274° |
| 2026-05-05 19:35 | 41.07797 | 33.80465 | 32029 ft | 409 kts | 274° |
| 2026-05-05 19:36 | 41.07674 | 33.72895 | 32024 ft | 410 kts | 275° |
| 2026-05-05 19:36 | 41.07547 | 33.65354 | 32029 ft | 409 kts | 275° |
| 2026-05-05 19:37 | 41.07412 | 33.57824 | 32024 ft | 407 kts | 275° |
| 2026-05-05 19:37 | 41.07272 | 33.50294 | 32008 ft | 407 kts | 275° |
| 2026-05-05 19:38 | 41.07132 | 33.42766 | 31991 ft | 409 kts | 275° |
| 2026-05-05 19:38 | 41.06987 | 33.35239 | 32013 ft | 410 kts | 275° |
| 2026-05-05 19:39 | 41.06833 | 33.27684 | 32004 ft | 409 kts | 274° |
| 2026-05-05 19:39 | 41.06675 | 33.20169 | 32007 ft | 409 kts | 274° |
| 2026-05-05 19:40 | 41.06513 | 33.12629 | 32012 ft | 409 kts | 274° |
| 2026-05-05 19:40 | 41.06344 | 33.05065 | 32017 ft | 409 kts | 275° |
| 2026-05-05 19:41 | 41.06171 | 32.97550 | 32018 ft | 408 kts | 275° |
| 2026-05-05 19:41 | 41.05992 | 32.90015 | 32019 ft | 407 kts | 274° |
| 2026-05-05 19:42 | 41.05811 | 32.82448 | 32018 ft | 409 kts | 274° |
| 2026-05-05 19:42 | 41.05623 | 32.74919 | 32015 ft | 408 kts | 274° |
| 2026-05-05 19:43 | 41.05432 | 32.67457 | 32012 ft | 407 kts | 274° |
| 2026-05-05 19:43 | 41.05236 | 32.59910 | 32021 ft | 409 kts | 274° |
| 2026-05-05 19:44 | 41.05037 | 32.52425 | 32025 ft | 407 kts | 274° |
| 2026-05-05 19:44 | 41.04830 | 32.44855 | 32023 ft | 409 kts | 274° |
| 2026-05-05 19:45 | 41.04618 | 32.37334 | 32018 ft | 408 kts | 274° |
| 2026-05-05 19:45 | 41.04402 | 32.29819 | 32010 ft | 409 kts | 273° |
| 2026-05-05 19:46 | 41.04179 | 32.22284 | 32003 ft | 408 kts | 273° |
| 2026-05-05 19:46 | 41.03954 | 32.14772 | 32006 ft | 408 kts | 273° |
| 2026-05-05 19:47 | 41.03722 | 32.07254 | 32021 ft | 408 kts | 273° |
| 2026-05-05 19:47 | 41.03486 | 31.99738 | 32025 ft | 408 kts | 273° |
| 2026-05-05 19:48 | 41.03245 | 31.92190 | 32028 ft | 409 kts | 273° |
| 2026-05-05 19:48 | 41.03001 | 31.84697 | 32032 ft | 408 kts | 272° |
| 2026-05-05 19:49 | 41.02752 | 31.77173 | 32035 ft | 408 kts | 272° |
| 2026-05-05 19:49 | 41.02494 | 31.69629 | 32043 ft | 409 kts | 272° |
| 2026-05-05 19:50 | 41.02235 | 31.62135 | 32036 ft | 408 kts | 272° |
| 2026-05-05 19:50 | 41.01970 | 31.54653 | 32034 ft | 408 kts | 272° |
| 2026-05-05 19:51 | 41.01699 | 31.47123 | 32033 ft | 409 kts | 272° |
| 2026-05-05 19:51 | 41.01235 | 31.39627 | 32034 ft | 414 kts | 263° |
| 2026-05-05 19:52 | 40.99535 | 31.32251 | 32037 ft | 421 kts | 253° |
| 2026-05-05 19:52 | 40.97429 | 31.25011 | 32038 ft | 421 kts | 253° |
| 2026-05-05 19:53 | 40.95330 | 31.17750 | 32038 ft | 421 kts | 253° |
| 2026-05-05 19:53 | 40.93312 | 31.10513 | 32046 ft | 420 kts | 254° |
| 2026-05-05 19:54 | 40.91337 | 31.03295 | 32045 ft | 419 kts | 254° |
| 2026-05-05 19:54 | 40.89359 | 30.96022 | 32050 ft | 417 kts | 254° |
| 2026-05-05 19:55 | 40.87386 | 30.88778 | 31921 ft | 421 kts | 254° |
| 2026-05-05 19:55 | 40.86401 | 30.85162 | 31667 ft | 422 kts | 254° |
| 2026-05-05 19:55 | 40.85412 | 30.81541 | 31247 ft | 420 kts | 254° |
| 2026-05-05 19:55 | 40.84415 | 30.77900 | 30658 ft | 420 kts | 254° |
| 2026-05-05 19:56 | 40.83419 | 30.74268 | 30093 ft | 418 kts | 254° |
| 2026-05-05 19:56 | 40.82433 | 30.70680 | 29577 ft | 414 kts | 254° |
| 2026-05-05 19:56 | 40.81458 | 30.67136 | 29059 ft | 411 kts | 254° |
| 2026-05-05 19:56 | 40.80489 | 30.63618 | 28539 ft | 408 kts | 254° |
| 2026-05-05 19:57 | 40.79521 | 30.60104 | 28021 ft | 405 kts | 254° |
| 2026-05-05 19:57 | 40.78889 | 30.57812 | 27680 ft | 404 kts | 253° |
| 2026-05-05 19:57 | 40.77612 | 30.53186 | 26987 ft | 400 kts | 253° |
| 2026-05-05 19:57 | 40.76667 | 30.49765 | 26482 ft | 397 kts | 253° |
| 2026-05-05 19:58 | 40.75719 | 30.46342 | 25970 ft | 394 kts | 253° |
| 2026-05-05 19:58 | 40.74791 | 30.42993 | 25468 ft | 391 kts | 253° |
| 2026-05-05 19:58 | 40.73854 | 30.39613 | 24957 ft | 389 kts | 253° |
| 2026-05-05 19:58 | 40.72932 | 30.36292 | 24454 ft | 386 kts | 253° |
| 2026-05-05 19:59 | 40.72016 | 30.32999 | 23962 ft | 384 kts | 252° |
| 2026-05-05 19:59 | 40.71093 | 30.29687 | 23461 ft | 381 kts | 252° |
| 2026-05-05 19:59 | 40.70182 | 30.26425 | 22960 ft | 379 kts | 252° |
| 2026-05-05 19:59 | 40.69275 | 30.23175 | 22467 ft | 376 kts | 252° |
| 2026-05-05 20:00 | 40.68377 | 30.19967 | 21976 ft | 374 kts | 252° |
| 2026-05-05 20:00 | 40.67483 | 30.16776 | 21500 ft | 371 kts | 252° |
| 2026-05-05 20:00 | 40.66589 | 30.13592 | 20999 ft | 369 kts | 252° |
| 2026-05-05 20:00 | 40.65704 | 30.10440 | 20514 ft | 366 kts | 252° |
| 2026-05-05 20:01 | 40.64824 | 30.07312 | 20035 ft | 363 kts | 252° |
| 2026-05-05 20:01 | 40.63950 | 30.04202 | 19538 ft | 360 kts | 252° |
| 2026-05-05 20:01 | 40.63083 | 30.01123 | 19079 ft | 357 kts | 252° |
| 2026-05-05 20:01 | 40.62218 | 29.98060 | 18618 ft | 354 kts | 252° |
| 2026-05-05 20:02 | 40.61362 | 29.95030 | 18145 ft | 351 kts | 252° |
| 2026-05-05 20:02 | 40.60524 | 29.92069 | 17692 ft | 348 kts | 252° |
| 2026-05-05 20:02 | 40.59681 | 29.89088 | 17221 ft | 344 kts | 252° |
| 2026-05-05 20:02 | 40.58855 | 29.86171 | 16779 ft | 341 kts | 252° |
| 2026-05-05 20:03 | 40.58030 | 29.83265 | 16321 ft | 338 kts | 252° |
| 2026-05-05 20:03 | 40.57207 | 29.80367 | 15871 ft | 336 kts | 252° |
| 2026-05-05 20:03 | 40.56389 | 29.77495 | 15430 ft | 332 kts | 252° |
| 2026-05-05 20:03 | 40.55579 | 29.74655 | 14965 ft | 330 kts | 252° |
| 2026-05-05 20:04 | 40.54783 | 29.71853 | 14523 ft | 326 kts | 252° |
| 2026-05-05 20:04 | 40.53992 | 29.69076 | 14091 ft | 323 kts | 252° |
| 2026-05-05 20:04 | 40.53204 | 29.66317 | 13655 ft | 321 kts | 252° |
| 2026-05-05 20:04 | 40.52430 | 29.63619 | 13313 ft | 316 kts | 252° |
| 2026-05-05 20:05 | 40.51660 | 29.60940 | 13168 ft | 304 kts | 253° |
| 2026-05-05 20:05 | 40.50936 | 29.58423 | 13060 ft | 295 kts | 253° |
| 2026-05-05 20:05 | 40.50190 | 29.55805 | 12729 ft | 313 kts | 253° |
| 2026-05-05 20:05 | 40.49428 | 29.53129 | 12242 ft | 318 kts | 253° |
| 2026-05-05 20:06 | 40.48648 | 29.50413 | 11808 ft | 316 kts | 253° |
| 2026-05-05 20:06 | 40.47868 | 29.47713 | 11370 ft | 314 kts | 252° |
| 2026-05-05 20:06 | 40.47095 | 29.45039 | 10945 ft | 311 kts | 252° |
| 2026-05-05 20:06 | 40.46338 | 29.42417 | 10527 ft | 310 kts | 252° |
| 2026-05-05 20:07 | 40.45577 | 29.39780 | 10102 ft | 308 kts | 252° |
| 2026-05-05 20:07 | 40.44824 | 29.37177 | 9902 ft | 298 kts | 252° |
| 2026-05-05 20:07 | 40.44096 | 29.34666 | 9560 ft | 294 kts | 252° |
| 2026-05-05 20:07 | 40.43369 | 29.32154 | 9162 ft | 293 kts | 252° |
| 2026-05-05 20:08 | 40.42647 | 29.29656 | 8770 ft | 291 kts | 252° |
| 2026-05-05 20:08 | 40.41928 | 29.27175 | 8468 ft | 287 kts | 252° |
| 2026-05-05 20:08 | 40.41228 | 29.24743 | 8216 ft | 285 kts | 253° |
| 2026-05-05 20:08 | 40.40798 | 29.22239 | 7959 ft | 280 kts | 273° |
| 2026-05-05 20:09 | 40.41220 | 29.19823 | 7709 ft | 271 kts | 301° |
| 2026-05-05 20:09 | 40.42380 | 29.17911 | 7463 ft | 265 kts | 322° |
| 2026-05-05 20:09 | 40.43902 | 29.16588 | 7265 ft | 262 kts | 334° |
| 2026-05-05 20:09 | 40.45584 | 29.15655 | 7086 ft | 261 kts | 341° |
| 2026-05-05 20:10 | 40.47299 | 29.14907 | 6908 ft | 261 kts | 343° |
| 2026-05-05 20:10 | 40.49029 | 29.14180 | 6727 ft | 260 kts | 343° |
| 2026-05-05 20:10 | 40.50743 | 29.13439 | 6549 ft | 259 kts | 342° |
| 2026-05-05 20:10 | 40.52456 | 29.12677 | 6373 ft | 260 kts | 342° |
| 2026-05-05 20:11 | 40.54167 | 29.11903 | 6195 ft | 259 kts | 342° |
| 2026-05-05 20:11 | 40.55856 | 29.11132 | 6009 ft | 251 kts | 342° |
| 2026-05-05 20:11 | 40.57488 | 29.10387 | 5829 ft | 242 kts | 342° |
| 2026-05-05 20:11 | 40.59060 | 29.09670 | 5651 ft | 235 kts | 342° |
| 2026-05-05 20:12 | 40.60567 | 29.08986 | 5476 ft | 228 kts | 342° |
| 2026-05-05 20:12 | 40.62060 | 29.08310 | 5301 ft | 224 kts | 342° |
| 2026-05-05 20:12 | 40.63555 | 29.07633 | 5133 ft | 225 kts | 342° |
| 2026-05-05 20:12 | 40.65024 | 29.06965 | 4986 ft | 224 kts | 342° |
| 2026-05-05 20:13 | 40.66506 | 29.06290 | 4834 ft | 224 kts | 342° |
| 2026-05-05 20:13 | 40.67966 | 29.05624 | 4685 ft | 223 kts | 342° |
| 2026-05-05 20:13 | 40.69411 | 29.04965 | 4525 ft | 216 kts | 342° |
| 2026-05-05 20:13 | 40.70831 | 29.04316 | 4372 ft | 212 kts | 342° |
| 2026-05-05 20:14 | 40.72224 | 29.03681 | 4223 ft | 212 kts | 342° |
| 2026-05-05 20:14 | 40.73613 | 29.03047 | 4075 ft | 213 kts | 342° |
| 2026-05-05 20:14 | 40.75023 | 29.02426 | 3923 ft | 211 kts | 346° |
| 2026-05-05 20:14 | 40.76480 | 29.02230 | 3757 ft | 210 kts | 11° |
| 2026-05-05 20:15 | 40.77815 | 29.03021 | 3614 ft | 212 kts | 38° |
| 2026-05-05 20:15 | 40.78817 | 29.04430 | 3476 ft | 214 kts | 50° |
| 2026-05-05 20:15 | 40.79727 | 29.05980 | 3319 ft | 213 kts | 50° |
| 2026-05-05 20:15 | 40.80638 | 29.07531 | 3162 ft | 211 kts | 50° |
| 2026-05-05 20:16 | 40.81540 | 29.09059 | 3014 ft | 211 kts | 50° |
| 2026-05-05 20:16 | 40.82364 | 29.10648 | 2999 ft | 211 kts | 58° |
| 2026-05-05 20:16 | 40.83003 | 29.12371 | 2995 ft | 202 kts | 64° |
| 2026-05-05 20:16 | 40.83565 | 29.14006 | 2989 ft | 186 kts | 62° |
| 2026-05-05 20:17 | 40.84127 | 29.15510 | 2990 ft | 182 kts | 60° |
| 2026-05-05 20:17 | 40.84696 | 29.17015 | 2786 ft | 181 kts | 61° |
| 2026-05-05 20:17 | 40.85240 | 29.18484 | 2433 ft | 174 kts | 61° |
| 2026-05-05 20:17 | 40.85752 | 29.19866 | 2178 ft | 162 kts | 61° |
| 2026-05-05 20:18 | 40.86227 | 29.21145 | 1948 ft | 153 kts | 61° |
| 2026-05-05 20:18 | 40.86688 | 29.22383 | 1682 ft | 147 kts | 62° |
| 2026-05-05 20:18 | 40.87139 | 29.23598 | 1457 ft | 148 kts | 62° |
| 2026-05-05 20:18 | 40.87588 | 29.24808 | 1223 ft | 147 kts | 62° |
| 2026-05-05 20:19 | 40.88040 | 29.26031 | 998 ft | 146 kts | 62° |
| 2026-05-05 20:19 | 40.88484 | 29.27224 | 777 ft | 146 kts | 62° |
| 2026-05-05 20:19 | 40.88943 | 29.28442 | 550 ft | 147 kts | 63° |
| 2026-05-05 20:19 | 40.89388 | 29.29659 | 334 ft | 146 kts | 64° |
| 2026-05-05 20:20 | 40.89757 | 29.30652 | 321 ft | 82 kts | 62° |
| 2026-05-05 20:20 | 40.89915 | 29.31086 | 321 ft | 38 kts | 63° |
| 2026-05-05 20:20 | 40.90042 | 29.31427 | 320 ft | 32 kts | 64° |
| 2026-05-05 20:20 | 40.90157 | 29.31618 | 320 ft | 17 kts | 38° |
| 2026-05-05 20:21 | 40.90242 | 29.31696 | 320 ft | 11 kts | 33° |
| 2026-05-05 20:21 | 40.90270 | 29.31722 | 320 ft | 0 kts | 33° |
| 2026-05-05 20:23 | 40.90271 | 29.31722 | 320 ft | 0 kts | 33° |
| 2026-05-05 20:23 | 40.90308 | 29.31755 | 320 ft | 10 kts | 34° |
| 2026-05-05 20:23 | 40.90365 | 29.31809 | 320 ft | 9 kts | 37° |
| 2026-05-05 20:23 | 40.90412 | 29.31868 | 320 ft | 8 kts | 55° |
| 2026-05-05 20:24 | 40.90445 | 29.31949 | 320 ft | 11 kts | 62° |
| 2026-05-05 20:24 | 40.90503 | 29.31987 | 320 ft | 9 kts | 342° |
| 2026-05-05 20:24 | 40.90562 | 29.31951 | 320 ft | 9 kts | 334° |
| 2026-05-05 20:24 | 40.90604 | 29.31901 | 320 ft | 7 kts | 284° |
| 2026-05-05 20:25 | 40.90594 | 29.31837 | 320 ft | 6 kts | 246° |
| 2026-05-05 20:25 | 40.90602 | 29.31794 | 320 ft | 5 kts | 329° |
| 2026-05-05 20:25 | 40.90630 | 29.31773 | 320 ft | 4 kts | 333° |
| 2026-05-05 20:25 | 40.90652 | 29.31759 | 320 ft | 2 kts | 334° |
| 2026-05-05 20:26 | 40.90666 | 29.31750 | 320 ft | 1 kts | 333° |
| 2026-05-05 20:26 | 40.90670 | 29.31747 | 320 ft | 0 kts | 333° |